Time;durP1;ratioP1;P1;durP2;ratioP2;P2;SDS_P1;SDS_P2;PMS_P1;PMS_P2;Temp;Humidity;BMP_temperature;BMP_pressure;BME280_temperature;BME280_humidity;BME280_pressure;Samples;Min_cycle;Max_cycle;Signal;HPM_P1;HPM_P2
2021/11/15 00:00:14;;;;;;;65.28;37.72;;;9.50;99.90;;;;;;5061330;28;20031;-78
2021/11/15 00:02:44;;;;;;;77.88;38.28;;;9.50;99.90;;;;;;5067188;28;20507;-80
2021/11/15 00:05:11;;;;;;;70.25;36.28;;;9.50;99.90;;;;;;5053635;28;20385;-79
2021/11/15 00:07:37;;;;;;;74.63;37.92;;;9.50;99.90;;;;;;5056362;28;20372;-79
2021/11/15 00:10:05;;;;;;;78.38;34.53;;;9.40;99.90;;;;;;5064027;28;20025;-79
2021/11/15 00:12:31;;;;;;;61.40;33.92;;;9.50;99.90;;;;;;5063578;28;20024;-79
2021/11/15 00:14:56;;;;;;;77.75;38.33;;;9.40;99.90;;;;;;5045557;28;20041;-79
2021/11/15 00:17:22;;;;;;;67.75;34.40;;;9.50;99.90;;;;;;5042430;28;20082;-80
2021/11/15 00:19:48;;;;;;;76.82;36.97;;;9.40;99.90;;;;;;5064608;28;20060;-80
2021/11/15 00:22:14;;;;;;;71.30;37.03;;;9.40;99.90;;;;;;5055098;28;20393;-79
2021/11/15 00:24:40;;;;;;;65.60;34.55;;;9.40;99.90;;;;;;5048417;28;20116;-79
2021/11/15 00:27:05;;;;;;;73.38;34.72;;;9.30;99.90;;;;;;5068787;28;20071;-78
2021/11/15 00:29:31;;;;;;;73.63;36.95;;;9.40;99.90;;;;;;5059093;28;20028;-79
2021/11/15 00:31:57;;;;;;;74.85;38.53;;;9.40;99.90;;;;;;5052470;28;20394;-79
2021/11/15 00:34:23;;;;;;;71.82;38.50;;;9.40;99.90;;;;;;5057523;28;20020;-80
2021/11/15 00:36:49;;;;;;;85.63;40.72;;;9.40;99.90;;;;;;5070922;28;20038;-80
2021/11/15 00:39:14;;;;;;;72.90;38.50;;;9.40;99.90;;;;;;5057792;28;20043;-79
2021/11/15 00:41:40;;;;;;;83.47;42.33;;;9.50;99.90;;;;;;5056635;28;20031;-80
2021/11/15 00:44:06;;;;;;;79.60;42.47;;;9.50;99.90;;;;;;5064751;28;20033;-80
2021/11/15 00:46:32;;;;;;;84.15;41.25;;;9.50;99.90;;;;;;5053707;28;20114;-80
2021/11/15 00:48:58;;;;;;;82.85;41.28;;;9.50;99.90;;;;;;5070444;28;20028;-80
2021/11/15 00:51:27;;;;;;;80.78;40.70;;;9.60;99.90;;;;;;5045170;28;20036;-80
2021/11/15 00:53:56;;;;;;;105.53;50.50;;;9.50;99.90;;;;;;5043316;28;20029;-80
2021/11/15 00:56:21;;;;;;;100.22;45.70;;;9.50;99.90;;;;;;5044600;28;20025;-80
2021/11/15 00:58:47;;;;;;;105.82;50.05;;;9.40;99.90;;;;;;5044081;28;20044;-80
2021/11/15 01:01:13;;;;;;;90.85;43.55;;;9.40;99.90;;;;;;5045011;28;20021;-80
2021/11/15 01:03:39;;;;;;;107.60;48.70;;;9.50;99.90;;;;;;5041448;28;20080;-80
2021/11/15 01:06:05;;;;;;;115.57;54.00;;;9.60;99.90;;;;;;5042403;28;20033;-81
2021/11/15 01:08:31;;;;;;;118.07;56.25;;;9.70;99.90;;;;;;5041237;28;20057;-80
2021/11/15 01:10:56;;;;;;;120.55;56.17;;;9.70;99.90;;;;;;5043816;28;20024;-80
2021/11/15 01:13:24;;;;;;;138.55;61.20;;;9.80;99.90;;;;;;5043908;28;20512;-80
2021/11/15 01:15:49;;;;;;;128.52;56.70;;;9.80;99.90;;;;;;5037689;28;20064;-77
2021/11/15 01:18:15;;;;;;;120.90;55.53;;;9.80;99.90;;;;;;5045504;28;20119;-80
2021/11/15 01:20:42;;;;;;;121.03;59.45;;;9.80;99.90;;;;;;5049981;28;20105;-80
2021/11/15 01:23:09;;;;;;;156.70;65.35;;;9.80;99.90;;;;;;5046910;28;20127;-81
2021/11/15 01:25:36;;;;;;;128.18;58.40;;;9.80;99.90;;;;;;5050176;28;20063;-80
2021/11/15 01:28:02;;;;;;;131.40;60.47;;;9.80;99.90;;;;;;5045814;28;20470;-80
2021/11/15 01:30:28;;;;;;;138.90;63.08;;;9.80;99.90;;;;;;5046228;28;20020;-80
2021/11/15 01:32:55;;;;;;;143.23;64.05;;;9.90;99.90;;;;;;5045713;28;20041;-80
2021/11/15 01:35:22;;;;;;;133.20;62.08;;;9.90;99.90;;;;;;5048843;28;20082;-80
2021/11/15 01:37:48;;;;;;;138.27;64.95;;;9.80;99.90;;;;;;5048115;28;20041;-80
2021/11/15 01:40:17;;;;;;;139.90;66.60;;;9.80;99.90;;;;;;5050458;28;20052;-80
2021/11/15 01:42:43;;;;;;;136.43;67.65;;;9.90;99.90;;;;;;5048778;28;20028;-80
2021/11/15 01:45:10;;;;;;;136.48;64.88;;;9.90;99.90;;;;;;5044405;28;20017;-80
2021/11/15 01:47:37;;;;;;;136.25;66.15;;;9.90;99.90;;;;;;5045407;28;20107;-78
2021/11/15 01:50:05;;;;;;;145.05;67.95;;;9.90;99.90;;;;;;5046676;28;20013;-81
2021/11/15 01:52:31;;;;;;;144.55;66.75;;;9.90;99.90;;;;;;5046169;28;20016;-80
2021/11/15 01:54:57;;;;;;;134.32;66.95;;;9.80;99.90;;;;;;5045050;28;20174;-80
2021/11/15 01:57:22;;;;;;;156.52;71.97;;;9.80;99.90;;;;;;5045672;28;20056;-81
2021/11/15 01:59:48;;;;;;;123.75;63.03;;;9.90;99.90;;;;;;5047742;28;20032;-80
2021/11/15 02:02:14;;;;;;;127.88;64.85;;;9.90;99.90;;;;;;5050866;28;20531;-80
2021/11/15 02:04:40;;;;;;;120.43;60.00;;;9.90;99.90;;;;;;5045032;28;20025;-80
2021/11/15 02:07:06;;;;;;;121.13;60.85;;;9.90;99.90;;;;;;5041448;28;20039;-79
2021/11/15 02:09:31;;;;;;;118.70;57.97;;;9.80;99.90;;;;;;5041269;28;20148;-82
2021/11/15 02:11:59;;;;;;;109.47;57.97;;;9.80;99.90;;;;;;5041824;28;20032;-80
2021/11/15 02:14:24;;;;;;;115.05;57.38;;;9.80;99.90;;;;;;5043022;28;20101;-80
2021/11/15 02:16:50;;;;;;;114.95;57.97;;;9.80;99.90;;;;;;5041257;28;20108;-80
2021/11/15 02:19:16;;;;;;;112.03;54.78;;;9.80;99.90;;;;;;5043767;28;20043;-80
2021/11/15 02:21:42;;;;;;;114.03;55.00;;;9.80;99.90;;;;;;5043827;28;20022;-80
2021/11/15 02:24:09;;;;;;;112.68;56.55;;;9.90;99.90;;;;;;5042005;28;20024;-80
2021/11/15 02:26:35;;;;;;;109.78;55.78;;;9.80;99.90;;;;;;5040882;28;20037;-80
2021/11/15 02:29:01;;;;;;;110.20;56.25;;;9.90;99.90;;;;;;5043335;28;20013;-81
2021/11/15 02:31:28;;;;;;;101.07;52.80;;;9.90;99.90;;;;;;5040126;28;20428;-80
2021/11/15 02:33:58;;;;;;;104.57;54.97;;;9.90;99.90;;;;;;5039915;28;20084;-80
2021/11/15 02:36:27;;;;;;;109.05;54.38;;;9.90;99.90;;;;;;5041347;28;20025;-80
2021/11/15 02:38:54;;;;;;;108.43;54.65;;;10.00;99.90;;;;;;5040266;28;20040;-81
2021/11/15 02:41:22;;;;;;;106.57;54.13;;;10.00;99.90;;;;;;5042322;28;20021;-80
2021/11/15 02:43:48;;;;;;;104.28;53.40;;;10.00;99.90;;;;;;5042709;28;20033;-81
2021/11/15 02:46:15;;;;;;;102.55;53.85;;;10.00;99.90;;;;;;5042573;28;20027;-80
2021/11/15 02:48:41;;;;;;;101.28;55.33;;;9.80;99.90;;;;;;5040372;28;20142;-80
2021/11/15 02:51:07;;;;;;;105.28;52.05;;;9.90;99.90;;;;;;5041940;28;20082;-80
2021/11/15 02:53:33;;;;;;;113.78;51.58;;;9.90;99.90;;;;;;5041030;28;20033;-79
2021/11/15 02:55:59;;;;;;;101.40;53.70;;;9.90;99.90;;;;;;5038956;28;20017;-80
2021/11/15 02:58:25;;;;;;;101.43;54.85;;;10.00;99.90;;;;;;5040478;28;20547;-80
2021/11/15 03:01:05;;;;;;;99.70;51.75;;;10.00;99.90;;;;;;5042681;28;20032;-81
2021/11/15 03:03:31;;;;;;;105.32;53.78;;;9.90;99.90;;;;;;5042536;28;20114;-80
2021/11/15 03:05:57;;;;;;;95.55;49.97;;;9.80;99.90;;;;;;5040187;28;20060;-80
2021/11/15 03:08:25;;;;;;;95.57;51.42;;;9.90;99.90;;;;;;5040770;28;20018;-80
2021/11/15 03:10:58;;;;;;;93.38;51.55;;;9.90;99.90;;;;;;5041472;28;20098;-80
2021/11/15 03:13:24;;;;;;;;;;;9.90;99.90;;;;;;5041564;28;20025;-80
2021/11/15 03:15:52;;;;;;;93.57;48.60;;;9.90;99.90;;;;;;5040007;28;20363;-80
2021/11/15 03:18:23;;;;;;;92.38;50.10;;;9.90;99.90;;;;;;5041319;28;20512;-80
2021/11/15 03:20:57;;;;;;;101.07;50.20;;;10.00;99.90;;;;;;5040198;28;20094;-80
2021/11/15 03:23:26;;;;;;;91.13;50.13;;;9.90;99.90;;;;;;5042690;28;20030;-80
2021/11/15 03:25:54;;;;;;;88.35;49.55;;;9.80;99.90;;;;;;5042038;28;20017;-80
2021/11/15 03:28:26;;;;;;;84.60;47.60;;;9.80;99.90;;;;;;5044329;28;20120;-80
2021/11/15 03:30:55;;;;;;;87.77;48.53;;;9.90;99.90;;;;;;5041298;28;20508;-80
2021/11/15 03:33:22;;;;;;;90.57;48.97;;;9.80;99.90;;;;;;5041122;28;20029;-81
2021/11/15 03:35:49;;;;;;;84.10;45.85;;;9.80;99.90;;;;;;5040149;28;20117;-80
2021/11/15 03:38:15;;;;;;;91.35;47.40;;;9.80;99.90;;;;;;5040689;28;20493;-80
2021/11/15 03:40:41;;;;;;;86.03;45.72;;;9.80;99.90;;;;;;5041497;28;20052;-80
2021/11/15 03:43:08;;;;;;;92.13;47.95;;;9.80;99.90;;;;;;5040115;28;20059;-80
2021/11/15 03:45:36;;;;;;;87.95;47.85;;;9.90;99.90;;;;;;5044439;28;20041;-80
2021/11/15 03:48:02;;;;;;;86.63;47.30;;;10.00;99.90;;;;;;5044274;28;20039;-80
2021/11/15 03:50:28;;;;;;;95.65;49.25;;;9.90;99.90;;;;;;5046144;28;20528;-81
2021/11/15 03:52:56;;;;;;;90.13;48.75;;;9.90;99.90;;;;;;5044433;28;20021;-80
2021/11/15 03:55:22;;;;;;;84.75;45.88;;;10.00;99.90;;;;;;5044435;28;20033;-80
2021/11/15 03:57:50;;;;;;;83.00;46.13;;;9.80;99.90;;;;;;5043905;28;20064;-80
2021/11/15 04:00:21;;;;;;;88.35;47.42;;;9.90;99.90;;;;;;5045754;28;20021;-80
2021/11/15 04:02:51;;;;;;;85.18;46.38;;;10.00;99.90;;;;;;5044253;28;20074;-80
2021/11/15 04:05:27;;;;;;;83.07;46.17;;;10.00;99.90;;;;;;5050709;28;20025;-80
2021/11/15 04:07:53;;;;;;;82.47;44.72;;;10.10;99.90;;;;;;5046888;28;20021;-80
2021/11/15 04:10:23;;;;;;;76.55;43.60;;;10.00;99.90;;;;;;5043320;28;20022;-80
2021/11/15 04:12:51;;;;;;;83.32;44.78;;;10.00;99.90;;;;;;5043311;28;20021;-80
2021/11/15 04:15:17;;;;;;;83.00;45.85;;;10.00;99.90;;;;;;5054987;28;20519;-80
2021/11/15 04:17:44;;;;;;;80.35;44.53;;;10.00;99.90;;;;;;5042564;28;20102;-80
2021/11/15 04:20:13;;;;;;;81.43;45.97;;;10.00;99.90;;;;;;5048541;28;20073;-80
2021/11/15 04:22:39;;;;;;;80.85;43.85;;;10.00;99.90;;;;;;5054505;28;20556;-80
2021/11/15 04:25:07;;;;;;;76.72;42.92;;;10.00;99.90;;;;;;5054715;28;20159;-80
2021/11/15 04:27:34;;;;;;;83.57;46.20;;;10.00;99.90;;;;;;5054553;28;20028;-79
2021/11/15 04:30:02;;;;;;;81.82;44.08;;;9.90;99.90;;;;;;5046325;28;20037;-80
2021/11/15 04:32:28;;;;;;;83.45;45.13;;;9.90;99.90;;;;;;5034496;28;20022;-79
2021/11/15 04:34:54;;;;;;;75.82;42.40;;;10.00;99.90;;;;;;5034654;28;20075;-80
2021/11/15 04:37:19;;;;;;;83.68;46.83;;;10.00;99.90;;;;;;5034481;28;20363;-80
2021/11/15 04:39:45;;;;;;;85.40;47.55;;;10.00;99.90;;;;;;5034174;28;20148;-80
2021/11/15 04:42:11;;;;;;;87.78;46.92;;;9.90;99.90;;;;;;5033612;28;20036;-79
2021/11/15 04:44:37;;;;;;;91.75;49.17;;;9.90;99.90;;;;;;5046069;28;20025;-80
2021/11/15 04:47:03;;;;;;;85.55;47.42;;;9.90;99.90;;;;;;5054460;28;20773;-80
2021/11/15 04:49:29;;;;;;;85.35;44.95;;;10.00;99.90;;;;;;5054547;28;20095;-80
2021/11/15 04:51:55;;;;;;;87.88;46.97;;;9.90;99.90;;;;;;5054276;28;20354;-80
2021/11/15 04:54:21;;;;;;;84.60;44.63;;;9.90;99.90;;;;;;5054220;28;20064;-80
2021/11/15 04:56:47;;;;;;;83.45;45.50;;;9.80;99.90;;;;;;5052282;28;20017;-80
2021/11/15 04:59:13;;;;;;;87.97;47.83;;;9.90;99.90;;;;;;5054420;28;20040;-80
2021/11/15 05:01:39;;;;;;;84.65;46.13;;;9.90;99.90;;;;;;5052190;28;20030;-80
2021/11/15 05:04:05;;;;;;;79.60;44.47;;;9.90;99.90;;;;;;5050519;28;20485;-80
2021/11/15 05:06:31;;;;;;;90.80;48.15;;;9.80;99.90;;;;;;5035625;28;20022;-80
2021/11/15 05:08:56;;;;;;;88.53;48.92;;;9.80;99.90;;;;;;5053265;28;20431;-80
2021/11/15 05:11:22;;;;;;;92.03;47.75;;;9.80;99.90;;;;;;5045806;28;20580;-80
2021/11/15 05:13:48;;;;;;;97.22;49.97;;;9.80;99.90;;;;;;5034378;28;20025;-80
2021/11/15 05:16:14;;;;;;;90.03;48.25;;;9.80;99.90;;;;;;5034040;28;20107;-80
2021/11/15 05:18:40;;;;;;;94.50;50.95;;;9.80;99.90;;;;;;5034145;28;20073;-80
2021/11/15 05:21:06;;;;;;;89.97;48.13;;;9.90;99.90;;;;;;5040636;28;20030;-80
2021/11/15 05:23:31;;;;;;;97.13;50.75;;;9.90;99.90;;;;;;5033795;28;20025;-80
2021/11/15 05:25:57;;;;;;;96.47;53.67;;;9.90;99.90;;;;;;5033839;28;20026;-79
2021/11/15 05:28:23;;;;;;;98.13;52.08;;;9.90;99.90;;;;;;5033742;28;20382;-80
2021/11/15 05:30:49;;;;;;;96.03;51.08;;;9.90;99.90;;;;;;5033596;28;20037;-80
2021/11/15 05:33:14;;;;;;;104.40;56.17;;;9.90;99.90;;;;;;5048116;28;20106;-79
2021/11/15 05:35:40;;;;;;;97.60;51.75;;;9.90;99.90;;;;;;5051743;28;20024;-80
2021/11/15 05:38:06;;;;;;;109.05;54.55;;;9.90;99.90;;;;;;5052879;28;20139;-80
2021/11/15 05:40:33;;;;;;;105.07;54.03;;;9.90;99.90;;;;;;5044134;28;20036;-80
2021/11/15 05:42:58;;;;;;;100.32;51.03;;;10.00;99.90;;;;;;5047344;28;20107;-79
2021/11/15 05:45:26;;;;;;;102.00;52.30;;;9.90;99.90;;;;;;5053479;28;20440;-81
2021/11/15 05:47:53;;;;;;;101.93;53.60;;;9.80;99.90;;;;;;5053232;28;20108;-80
2021/11/15 05:50:20;;;;;;;111.00;55.92;;;9.70;99.90;;;;;;5052088;28;20513;-80
2021/11/15 05:52:46;;;;;;;103.07;53.25;;;9.80;99.90;;;;;;5052376;28;20029;-80
2021/11/15 05:55:16;;;;;;;111.20;55.78;;;9.80;99.90;;;;;;5047184;28;20036;-80
2021/11/15 05:57:42;;;;;;;113.50;59.00;;;9.70;99.90;;;;;;5033032;28;20029;-80
2021/11/15 06:00:13;;;;;;;108.68;54.20;;;9.80;99.90;;;;;;5032989;28;20111;-80
2021/11/15 06:02:39;;;;;;;111.63;54.10;;;9.90;99.90;;;;;;5033147;28;20022;-81
2021/11/15 06:05:06;;;;;;;107.50;54.47;;;9.80;99.90;;;;;;5032667;28;20032;-80
2021/11/15 06:07:32;;;;;;;107.20;55.90;;;9.80;99.90;;;;;;5031789;28;20032;-80
2021/11/15 06:09:58;;;;;;;100.95;53.80;;;9.80;99.90;;;;;;5032640;28;20025;-80
2021/11/15 06:12:23;;;;;;;104.25;54.15;;;9.80;99.90;;;;;;5043836;28;20029;-79
2021/11/15 06:14:49;;;;;;;100.85;52.28;;;9.80;99.90;;;;;;5052486;28;20029;-81
2021/11/15 06:17:15;;;;;;;96.18;50.42;;;9.80;99.90;;;;;;5052461;28;20029;-80
2021/11/15 06:19:42;;;;;;;101.22;52.92;;;9.80;99.90;;;;;;5052491;28;20037;-80
2021/11/15 06:22:08;;;;;;;95.57;51.63;;;9.80;99.90;;;;;;5034643;28;20436;-81
2021/11/15 06:24:34;;;;;;;98.53;49.42;;;9.70;99.90;;;;;;5032894;28;20029;-80
2021/11/15 06:27:00;;;;;;;101.45;52.45;;;9.80;99.90;;;;;;5034008;28;20614;-80
2021/11/15 06:29:27;;;;;;;97.13;51.28;;;9.80;99.90;;;;;;5033501;28;20155;-80
2021/11/15 06:31:54;;;;;;;102.28;51.90;;;9.80;99.90;;;;;;5043363;28;20029;-80
2021/11/15 06:34:20;;;;;;;91.35;47.95;;;9.80;99.90;;;;;;5052452;28;20108;-80
2021/11/15 06:36:45;;;;;;;95.88;48.50;;;9.70;99.90;;;;;;5050720;28;20051;-80
2021/11/15 06:39:11;;;;;;;93.32;47.70;;;9.80;99.90;;;;;;5052315;28;20116;-80
2021/11/15 06:41:37;;;;;;;95.28;46.88;;;9.70;99.90;;;;;;5047635;28;20107;-79
2021/11/15 06:44:05;;;;;;;89.90;46.70;;;9.70;99.90;;;;;;5043140;28;20091;-81
2021/11/15 06:46:31;;;;;;;91.03;45.67;;;9.80;99.90;;;;;;5052144;28;20021;-80
2021/11/15 06:48:57;;;;;;;88.32;46.00;;;9.70;99.90;;;;;;5050136;28;20431;-80
2021/11/15 06:51:23;;;;;;;83.80;43.97;;;9.70;99.90;;;;;;5052247;28;20017;-80
2021/11/15 06:53:50;;;;;;;87.53;44.13;;;9.70;99.90;;;;;;5052232;28;20448;-80
2021/11/15 06:56:16;;;;;;;89.65;45.58;;;9.80;99.90;;;;;;5033919;28;20034;-80
2021/11/15 06:58:42;;;;;;;84.60;44.20;;;9.70;99.90;;;;;;5031999;28;20120;-80
2021/11/15 07:01:07;;;;;;;88.40;43.30;;;9.60;99.90;;;;;;5034263;28;20033;-79
2021/11/15 07:03:33;;;;;;;87.95;43.45;;;9.70;99.90;;;;;;5042475;28;20067;-79
2021/11/15 07:06:00;;;;;;;92.13;44.17;;;9.70;99.90;;;;;;5041205;28;20092;-79
2021/11/15 07:08:25;;;;;;;87.43;44.20;;;9.80;99.90;;;;;;5040737;28;20033;-80
2021/11/15 07:10:51;;;;;;;86.57;43.10;;;9.80;99.90;;;;;;5041665;28;20021;-80
2021/11/15 07:13:18;;;;;;;85.95;44.05;;;9.80;99.90;;;;;;5044737;28;20108;-81
2021/11/15 07:15:44;;;;;;;87.57;44.38;;;9.80;99.90;;;;;;5042964;28;20021;-80
2021/11/15 07:18:10;;;;;;;93.45;45.55;;;9.80;99.90;;;;;;5039594;28;20396;-79
2021/11/15 07:20:36;;;;;;;89.63;45.38;;;9.90;99.90;;;;;;5041519;28;20028;-79
2021/11/15 07:23:03;;;;;;;88.78;46.10;;;9.80;99.90;;;;;;5046967;28;20025;-79
2021/11/15 07:25:29;;;;;;;87.50;44.42;;;9.80;99.90;;;;;;5045239;28;20029;-78
2021/11/15 07:27:56;;;;;;;85.93;43.65;;;9.70;99.90;;;;;;5046083;28;20136;-78
2021/11/15 07:30:23;;;;;;;85.00;42.33;;;9.70;99.90;;;;;;5052791;28;20044;-80
2021/11/15 07:32:50;;;;;;;82.05;42.20;;;9.70;99.90;;;;;;5055987;28;20056;-81
2021/11/15 07:35:17;;;;;;;90.20;42.90;;;9.70;99.90;;;;;;5055628;28;20429;-79
2021/11/15 07:37:44;;;;;;;85.57;41.63;;;9.60;99.90;;;;;;5055722;28;20029;-80
2021/11/15 07:40:12;;;;;;;86.13;40.85;;;9.60;99.90;;;;;;5048483;28;20033;-78
2021/11/15 07:42:37;;;;;;;87.05;43.05;;;9.50;99.90;;;;;;5036652;28;20096;-80
2021/11/15 07:45:05;;;;;;;85.00;40.38;;;9.60;99.90;;;;;;5034940;28;20719;-80
2021/11/15 07:47:31;;;;;;;83.22;41.58;;;9.50;99.90;;;;;;5034168;28;20044;-80
2021/11/15 07:49:57;;;;;;;84.80;43.65;;;9.50;99.90;;;;;;5044753;28;20021;-80
2021/11/15 07:52:23;;;;;;;82.63;39.97;;;9.50;99.90;;;;;;5045057;28;20018;-80
2021/11/15 07:54:50;;;;;;;82.53;41.95;;;9.50;99.90;;;;;;5046489;28;20035;-80
2021/11/15 07:57:16;;;;;;;84.10;40.47;;;9.60;99.90;;;;;;5045644;28;20017;-80
2021/11/15 07:59:44;;;;;;;81.35;40.60;;;9.60;99.90;;;;;;5046088;28;20033;-78
2021/11/15 08:02:12;;;;;;;82.95;39.58;;;9.70;99.90;;;;;;5044700;28;20028;-80
2021/11/15 08:04:39;;;;;;;80.88;41.30;;;9.70;99.90;;;;;;5046739;28;20104;-79
2021/11/15 08:07:05;;;;;;;83.10;40.53;;;9.80;99.90;;;;;;5043899;28;20100;-80
2021/11/15 08:09:31;;;;;;;89.90;43.20;;;9.80;99.90;;;;;;5043990;28;20562;-78
2021/11/15 08:12:05;;;;;;;78.07;38.78;;;9.80;99.90;;;;;;5043951;28;20020;-80
2021/11/15 08:14:32;;;;;;;81.05;38.47;;;9.90;99.90;;;;;;5045757;28;20092;-79
2021/11/15 08:16:58;;;;;;;75.68;37.65;;;9.80;99.90;;;;;;5045948;28;20532;-80
2021/11/15 08:19:24;;;;;;;75.32;36.25;;;9.70;99.90;;;;;;5047422;28;20124;-79
2021/11/15 08:21:50;;;;;;;78.63;37.17;;;9.80;99.90;;;;;;5055958;28;20021;-79
2021/11/15 08:24:21;;;;;;;76.78;36.70;;;9.80;99.90;;;;;;5046504;28;20041;-80
2021/11/15 08:26:56;;;;;;;73.90;35.58;;;9.80;99.90;;;;;;5035688;28;20417;-79
2021/11/15 08:29:25;;;;;;;74.28;35.70;;;9.70;99.90;;;;;;5037033;28;20033;-80
2021/11/15 08:31:53;;;;;;;77.68;36.55;;;9.70;99.90;;;;;;5036249;28;20094;-82
2021/11/15 08:34:20;;;;;;;73.97;36.78;;;9.70;99.90;;;;;;5050062;28;20024;-80
2021/11/15 08:36:47;;;;;;;76.22;34.33;;;9.60;99.90;;;;;;5050582;28;20102;-79
2021/11/15 08:39:16;;;;;;;69.38;34.75;;;9.60;99.90;;;;;;5059039;28;20032;-81
2021/11/15 08:41:47;;;;;;;74.63;34.75;;;9.50;99.90;;;;;;5070238;28;20019;-79
2021/11/15 08:44:14;;;;;;;73.05;35.22;;;9.60;99.90;;;;;;5068697;28;20021;-80
2021/11/15 08:46:40;;;;;;;76.00;37.30;;;9.60;99.90;;;;;;5066621;28;20024;-79
2021/11/15 08:49:08;;;;;;;70.15;36.03;;;9.70;99.90;;;;;;5073687;28;20046;-80
2021/11/15 08:51:36;;;;;;;79.30;35.83;;;9.80;99.90;;;;;;5076483;28;20028;-80
2021/11/15 08:54:03;;;;;;;72.43;34.58;;;9.60;99.90;;;;;;5061086;28;20473;-80
2021/11/15 08:56:29;;;;;;;71.30;35.40;;;9.60;99.90;;;;;;5052840;28;20057;-80
2021/11/15 08:58:56;;;;;;;72.22;34.50;;;9.50;99.90;;;;;;5056947;28;20113;-80
2021/11/15 09:01:25;;;;;;;76.82;36.20;;;9.50;99.90;;;;;;5045107;28;20029;-79
2021/11/15 09:03:53;;;;;;;70.82;34.63;;;9.50;99.90;;;;;;5042976;28;20140;-80
2021/11/15 09:06:19;;;;;;;68.10;33.47;;;9.40;99.90;;;;;;5047704;28;20142;-79
2021/11/15 09:08:46;;;;;;;68.35;32.15;;;9.40;99.90;;;;;;5046339;28;20083;-80
2021/11/15 09:11:13;;;;;;;68.55;34.00;;;9.40;99.90;;;;;;5045212;28;20116;-80
2021/11/15 09:13:41;;;;;;;68.03;32.53;;;9.50;99.90;;;;;;5050583;28;20065;-79
2021/11/15 09:16:08;;;;;;;70.95;34.65;;;9.50;99.90;;;;;;5049341;28;20450;-80
2021/11/15 09:18:35;;;;;;;71.13;36.00;;;9.60;99.90;;;;;;5056217;28;20037;-79
2021/11/15 09:21:04;;;;;;;74.30;32.65;;;9.50;99.90;;;;;;5055974;28;20071;-79
2021/11/15 09:23:30;;;;;;;78.35;36.30;;;9.50;99.90;;;;;;5058995;28;20168;-79
2021/11/15 09:25:56;;;;;;;72.55;36.10;;;9.60;99.90;;;;;;5070802;28;20025;-79
2021/11/15 09:28:21;;;;;;;75.15;35.42;;;9.60;99.90;;;;;;5069917;28;20028;-79
2021/11/15 09:30:49;;;;;;;75.03;35.92;;;9.70;99.90;;;;;;5062131;28;20021;-80
2021/11/15 09:33:14;;;;;;;79.50;37.20;;;9.70;99.90;;;;;;5041085;28;20100;-79
2021/11/15 09:35:48;;;;;;;77.03;34.97;;;9.80;99.90;;;;;;5046600;28;20113;-79
2021/11/15 09:38:15;;;;;;;73.15;35.00;;;9.80;99.90;;;;;;5048773;28;20509;-78
2021/11/15 09:40:41;;;;;;;72.13;33.72;;;9.80;99.90;;;;;;5052966;28;20067;-79
2021/11/15 09:43:07;;;;;;;75.97;35.83;;;9.80;99.90;;;;;;5054088;28;20449;-79
2021/11/15 09:45:33;;;;;;;73.25;35.05;;;9.80;99.90;;;;;;5070755;28;20381;-80
2021/11/15 09:48:00;;;;;;;77.25;38.78;;;9.80;99.90;;;;;;5054466;28;20067;-78
2021/11/15 09:50:26;;;;;;;74.80;37.05;;;9.80;99.90;;;;;;5055872;28;20021;-78
2021/11/15 09:52:53;;;;;;;85.03;37.97;;;9.60;99.90;;;;;;5057884;28;20027;-79
2021/11/15 09:55:19;;;;;;;75.70;36.05;;;9.70;99.90;;;;;;5052614;28;20439;-79
2021/11/15 09:57:47;;;;;;;77.90;36.05;;;9.60;99.90;;;;;;5045566;28;20029;-79
2021/11/15 10:00:17;;;;;;;77.53;36.20;;;9.60;99.90;;;;;;5062743;28;20116;-80
2021/11/15 10:02:43;;;;;;;70.97;34.83;;;9.70;99.90;;;;;;5050613;28;20058;-79
2021/11/15 10:05:10;;;;;;;75.18;36.25;;;9.60;99.90;;;;;;5066533;28;20055;-79
2021/11/15 10:07:54;;;;;;;76.13;36.65;;;9.60;99.90;;;;;;5054819;28;20017;-79
2021/11/15 10:10:42;;;;;;;78.68;38.22;;;9.60;99.90;;;;;;5056948;28;20029;-80
2021/11/15 10:13:17;;;;;;;82.57;36.10;;;9.60;99.90;;;;;;5040813;28;20044;-79
2021/11/15 10:15:51;;;;;;;72.40;34.67;;;9.60;99.90;;;;;;5045183;28;20063;-80
2021/11/15 10:18:46;;;;;;;79.28;37.40;;;9.60;99.90;;;;;;5050346;28;20098;-79
2021/11/15 10:21:14;;;;;;;72.40;35.53;;;9.60;99.90;;;;;;5045625;28;20079;-80
2021/11/15 10:23:54;;;;;;;73.15;33.83;;;9.60;99.90;;;;;;5047075;28;20037;-79
2021/11/15 10:26:37;;;;;;;71.95;34.75;;;9.60;99.90;;;;;;5047045;28;20047;-80
2021/11/15 10:29:14;;;;;;;72.47;33.70;;;9.70;99.90;;;;;;5049338;28;20523;-80
2021/11/15 10:31:44;;;;;;;70.35;34.35;;;9.60;99.90;;;;;;5042920;28;20055;-79
2021/11/15 10:34:21;;;;;;;71.35;34.22;;;9.60;99.90;;;;;;5046195;28;20372;-80
2021/11/15 10:36:52;;;;;;;70.55;33.25;;;9.60;99.90;;;;;;5049642;28;20039;-80
2021/11/15 10:39:22;;;;;;;66.82;32.00;;;9.60;99.90;;;;;;5047654;28;20388;-80
2021/11/15 10:42:07;;;;;;;66.30;29.88;;;9.60;99.90;;;;;;5047031;28;20029;-80
2021/11/15 10:44:36;;;;;;;66.80;30.00;;;9.40;99.90;;;;;;5051997;28;20032;-79
2021/11/15 10:47:03;;;;;;;70.43;31.10;;;9.40;99.90;;;;;;5049729;28;20095;-78
2021/11/15 10:49:30;;;;;;;68.50;30.08;;;9.50;99.90;;;;;;5045099;28;20029;-79
2021/11/15 10:52:01;;;;;;;64.05;28.67;;;9.50;99.90;;;;;;5050860;28;20032;-78
2021/11/15 10:54:49;;;;;;;63.17;30.10;;;9.50;99.90;;;;;;5054013;28;20025;-80
2021/11/15 10:57:23;;;;;;;71.88;31.67;;;9.50;99.90;;;;;;5037183;28;20041;-80
2021/11/15 11:00:07;;;;;;;66.57;28.77;;;9.50;99.90;;;;;;5050685;28;20055;-77
2021/11/15 11:02:41;;;;;;;66.28;29.08;;;9.50;99.90;;;;;;5046433;28;20041;-78
2021/11/15 11:05:14;;;;;;;69.88;30.80;;;9.50;99.90;;;;;;5057923;28;20373;-77
2021/11/15 11:07:42;;;;;;;68.30;31.27;;;9.50;99.90;;;;;;5053033;28;20599;-79
2021/11/15 11:10:10;;;;;;;64.03;29.15;;;9.50;99.90;;;;;;5054893;28;20492;-77
2021/11/15 11:12:40;;;;;;;63.95;29.20;;;9.50;99.90;;;;;;5055289;28;20036;-79
2021/11/15 11:15:39;;;;;;;65.05;28.80;;;9.60;99.90;;;;;;5051838;28;20063;-79
2021/11/15 11:18:13;;;;;;;62.58;27.67;;;9.60;99.90;;;;;;5051813;28;20029;-80
2021/11/15 11:24:07;;;;;;;56.83;24.95;;;9.60;99.90;;;;;;5050841;28;20507;-79
2021/11/15 11:26:37;;;;;;;58.53;24.30;;;9.70;99.90;;;;;;5050388;28;20037;-79
2021/11/15 11:29:08;;;;;;;54.78;23.70;;;9.50;99.90;;;;;;5041192;28;20074;-80
2021/11/15 11:31:35;;;;;;;55.03;23.25;;;9.60;99.90;;;;;;5050727;28;20087;-81
2021/11/15 11:34:01;;;;;;;55.20;24.27;;;9.60;99.90;;;;;;5048522;28;20017;-79
2021/11/15 11:36:27;;;;;;;48.67;21.10;;;9.50;99.90;;;;;;5049562;28;20056;-78
2021/11/15 11:38:53;;;;;;;50.50;22.17;;;9.50;99.90;;;;;;5056704;28;20167;-80
2021/11/15 11:41:20;;;;;;;50.53;21.40;;;9.50;99.90;;;;;;5043722;28;20084;-79
2021/11/15 11:43:47;;;;;;;52.22;20.98;;;9.50;99.90;;;;;;5049680;28;20018;-79
2021/11/15 11:46:19;;;;;;;47.20;20.88;;;9.50;99.90;;;;;;5044984;28;20017;-80
2021/11/15 11:48:49;;;;;;;;;;;9.50;99.90;;;;;;5052573;28;20016;-80
2021/11/15 11:51:14;;;;;;;45.03;20.08;;;9.60;99.90;;;;;;5050743;28;19912;-79
2021/11/15 11:53:41;;;;;;;42.50;19.10;;;9.70;99.90;;;;;;5047917;28;20014;-80
2021/11/15 11:56:20;;;;;;;39.45;18.88;;;9.70;99.90;;;;;;5047784;28;20060;-80
2021/11/15 11:58:48;;;;;;;39.85;18.67;;;9.60;99.90;;;;;;5048220;28;20073;-80
2021/11/15 12:01:21;;;;;;;44.13;19.05;;;9.60;99.90;;;;;;5044257;28;20017;-80
2021/11/15 12:04:20;;;;;;;40.80;18.55;;;9.60;99.90;;;;;;5044335;28;20112;-80
2021/11/15 12:06:47;;;;;;;37.83;17.83;;;9.60;99.90;;;;;;5045624;28;20431;-80
2021/11/15 12:09:15;;;;;;;42.10;17.67;;;9.70;99.90;;;;;;5047089;28;20022;-80
2021/11/15 12:11:44;;;;;;;37.83;17.27;;;9.60;99.90;;;;;;5049126;28;20355;-80
2021/11/15 12:14:13;;;;;;;38.80;16.10;;;9.60;99.90;;;;;;5050256;28;20017;-80
2021/11/15 12:17:02;;;;;;;35.50;16.80;;;9.60;99.90;;;;;;5046046;28;20623;-80
2021/11/15 12:19:49;;;;;;;37.08;16.27;;;9.60;99.90;;;;;;5048802;28;20029;-80
2021/11/15 12:22:21;;;;;;;33.90;16.15;;;9.60;99.90;;;;;;5046489;28;20416;-80
2021/11/15 12:25:06;;;;;;;32.85;16.10;;;9.60;99.90;;;;;;5047514;28;20099;-80
2021/11/15 12:27:48;;;;;;;40.00;16.08;;;9.60;99.90;;;;;;5047707;28;20036;-80
2021/11/15 12:30:35;;;;;;;35.13;15.25;;;9.60;99.90;;;;;;5050647;28;20037;-78
2021/11/15 12:33:22;;;;;;;34.35;15.57;;;9.60;99.90;;;;;;5048533;28;20029;-81
2021/11/15 12:36:12;;;;;;;34.35;15.57;;;9.60;99.90;;;;;;5048138;28;20033;-81
2021/11/15 12:38:50;;;;;;;31.50;15.75;;;9.60;99.90;;;;;;5050603;28;20039;-80
2021/11/15 12:41:16;;;;;;;28.27;14.30;;;9.60;99.90;;;;;;5046615;28;20556;-80